createdAt,value
2022-11-22T00:00:20.512Z,1.07
2022-11-22T00:02:49.894Z,1.04
2022-11-22T00:05:19.893Z,0.96
2022-11-22T00:07:49.164Z,0.85
2022-11-22T00:10:18.970Z,0.77
2022-11-22T00:12:48.283Z,0.79
2022-11-22T00:15:17.767Z,0.78
2022-11-22T00:17:47.354Z,0.74
2022-11-22T00:20:19.857Z,0.69
2022-11-22T00:22:49.653Z,0.69
2022-11-22T00:25:19.147Z,0.67
2022-11-22T00:27:48.392Z,0.67
2022-11-22T00:30:18.295Z,0.61
2022-11-22T00:32:47.751Z,0.61
2022-11-22T00:35:17.475Z,0.56
2022-11-22T00:37:47.036Z,0.48
2022-11-22T00:40:18.084Z,0.49
2022-11-22T00:42:47.694Z,0.51
2022-11-22T00:45:17.335Z,0.51
2022-11-22T00:47:46.944Z,0.45
2022-11-22T00:50:17.024Z,0.41
2022-11-22T00:52:46.885Z,0.36
2022-11-22T00:55:16.387Z,0.37
2022-11-22T00:57:49.066Z,0.39
2022-11-22T01:00:19.826Z,0.34
2022-11-22T01:02:49.167Z,0.35
2022-11-22T01:05:19.784Z,0.36
2022-11-22T01:07:49.405Z,0.36
2022-11-22T01:10:19.166Z,0.34
2022-11-22T01:12:48.762Z,0.31
2022-11-22T01:15:19.403Z,0.33
2022-11-22T01:17:49.132Z,0.33
2022-11-22T01:20:19.563Z,0.30
2022-11-22T01:22:49.156Z,0.29
2022-11-22T01:25:18.987Z,0.27
2022-11-22T01:27:50.617Z,0.27
2022-11-22T01:30:34.956Z,0.26
2022-11-22T01:33:04.783Z,0.26
2022-11-22T01:35:54.465Z,0.25
2022-11-22T01:38:24.106Z,0.24
2022-11-22T01:40:53.572Z,0.24
2022-11-22T01:43:25.306Z,0.22
2022-11-22T01:45:56.036Z,0.21
2022-11-22T01:48:38.264Z,0.18
2022-11-22T01:51:15.519Z,0.10
2022-11-22T01:53:45.465Z,0.13
2022-11-22T01:56:19.835Z,0.12
2022-11-22T01:58:56.586Z,0.11
2022-11-22T05:41:55.593Z,-1.76
2022-11-22T05:44:26.698Z,-1.71
2022-11-22T05:46:56.560Z,-1.73
2022-11-22T05:49:27.049Z,-1.83
2022-11-22T05:51:57.021Z,-1.85
2022-11-22T05:54:27.226Z,-1.91
2022-11-22T05:56:57.270Z,-1.94
2022-11-22T05:59:27.896Z,-1.92
2022-11-22T06:01:58.284Z,-1.92
2022-11-22T06:04:28.263Z,-1.91
2022-11-22T06:06:58.301Z,-1.96
2022-11-22T06:09:29.047Z,-1.98
2022-11-22T06:11:59.323Z,-1.99
2022-11-22T06:14:29.380Z,-2.09
2022-11-22T06:16:59.311Z,-2.10
2022-11-22T06:19:29.336Z,-2.10
2022-11-22T06:21:59.500Z,-2.15
2022-11-22T06:24:29.450Z,-2.16
2022-11-22T06:26:59.421Z,-2.13
2022-11-22T06:29:32.453Z,-2.17
2022-11-22T06:32:03.949Z,-2.21
2022-11-22T06:34:34.591Z,-2.21
2022-11-22T06:37:05.561Z,-2.24
2022-11-22T06:39:36.049Z,-2.26
2022-11-22T06:42:06.539Z,-2.24
2022-11-22T06:44:37.081Z,-2.21
2022-11-22T06:47:07.982Z,-2.18
2022-11-22T06:49:38.452Z,-2.14
2022-11-22T06:52:08.479Z,-2.09
2022-11-22T06:54:38.634Z,-2.03
2022-11-22T06:57:08.462Z,-2.00
2022-11-22T06:59:41.870Z,-1.96
2022-11-22T07:02:13.579Z,-1.91
2022-11-22T07:05:09.455Z,-1.82
2022-11-22T07:07:33.849Z,-1.75
2022-11-22T07:10:04.451Z,-1.70
2022-11-22T07:12:34.371Z,-1.58
2022-11-22T07:15:04.885Z,-1.40
2022-11-22T07:17:34.910Z,-1.34
2022-11-22T07:20:06.761Z,-1.29
2022-11-22T07:22:36.821Z,-1.24
2022-11-22T07:25:08.731Z,-1.14
2022-11-22T07:27:38.677Z,-1.06
2022-11-22T07:30:11.664Z,-0.95
2022-11-22T07:32:41.680Z,-0.85
2022-11-22T07:35:13.032Z,-0.79
2022-11-22T07:37:43.263Z,-0.80
2022-11-22T07:40:14.712Z,-0.80
2022-11-22T07:42:44.692Z,-0.83
2022-11-22T07:45:14.881Z,-0.74
2022-11-22T07:47:44.812Z,-0.73
2022-11-22T07:50:15.264Z,-0.72
2022-11-22T07:52:45.296Z,-0.70
2022-11-22T07:55:15.572Z,-0.82
2022-11-22T07:57:45.828Z,-0.85
2022-11-22T08:00:17.180Z,-0.84
2022-11-22T08:02:47.219Z,-0.78
2022-11-22T08:05:18.139Z,-0.66
2022-11-22T08:07:49.219Z,-0.61
2022-11-22T08:10:20.222Z,-0.68
2022-11-22T08:12:50.138Z,-0.73
2022-11-22T08:15:20.310Z,-0.76
2022-11-22T08:17:50.210Z,-0.72
2022-11-22T08:20:20.172Z,-0.57
2022-11-22T08:22:50.020Z,-0.53
2022-11-22T08:25:20.018Z,-0.49
2022-11-22T08:27:50.073Z,-0.28
2022-11-22T08:30:20.610Z,-0.06
2022-11-22T08:32:51.441Z,0.02
2022-11-22T08:35:27.867Z,0.23
2022-11-22T08:37:59.341Z,0.38
2022-11-22T08:40:29.539Z,0.52
2022-11-22T08:42:59.470Z,0.50
2022-11-22T08:45:31.080Z,0.52
2022-11-22T08:48:01.182Z,0.51
2022-11-22T08:50:31.201Z,0.50
2022-11-22T08:53:03.141Z,0.45
2022-11-22T08:55:34.922Z,0.33
2022-11-22T08:58:04.787Z,0.41
2022-11-22T09:00:35.020Z,0.50
2022-11-22T09:03:05.409Z,0.40
2022-11-22T09:05:36.194Z,0.39
2022-11-22T09:08:22.469Z,0.29
2022-11-22T09:10:52.546Z,0.18
2022-11-22T09:13:22.537Z,0.07
2022-11-22T09:15:52.600Z,0.01
2022-11-22T09:18:25.317Z,0.04
2022-11-22T09:21:00.293Z,0.22
2022-11-22T09:23:30.651Z,0.21
2022-11-22T09:26:01.841Z,0.26
2022-11-22T09:28:31.914Z,0.32
2022-11-22T09:31:03.201Z,0.37
2022-11-22T09:33:34.771Z,0.57
2022-11-22T09:36:06.779Z,0.77
2022-11-22T09:38:38.000Z,0.79
2022-11-22T09:41:21.570Z,0.71
2022-11-22T09:44:01.532Z,0.67
2022-11-22T09:46:41.312Z,0.70
2022-11-22T09:49:34.379Z,0.84
2022-11-22T09:52:08.739Z,0.95
2022-11-22T09:54:44.941Z,1.00
2022-11-22T09:57:20.252Z,1.07
2022-11-22T09:59:55.399Z,1.17
2022-11-22T10:02:31.424Z,1.19
2022-11-22T10:05:14.121Z,1.25
2022-11-22T10:07:48.767Z,1.29
2022-11-22T10:10:23.271Z,1.34
2022-11-22T10:12:59.920Z,1.35
2022-11-22T10:15:37.681Z,1.30
2022-11-22T10:18:18.466Z,1.34
2022-11-22T10:20:49.212Z,1.23
2022-11-22T10:23:21.881Z,1.17
2022-11-22T10:25:58.281Z,1.26
2022-11-22T10:28:35.259Z,1.35
2022-11-22T10:31:18.652Z,1.41
2022-11-22T10:34:01.090Z,1.40
2022-11-22T10:36:39.412Z,1.35
2022-11-22T10:39:19.870Z,1.35
2022-11-22T10:42:07.390Z,1.37
2022-11-22T10:44:50.411Z,1.41
2022-11-22T10:47:36.602Z,1.45
2022-11-22T10:50:13.193Z,1.30
2022-11-22T10:52:51.595Z,1.30
2022-11-22T10:55:30.380Z,1.28
2022-11-22T10:58:06.784Z,1.26
2022-11-22T11:00:41.293Z,1.22
2022-11-22T11:03:21.660Z,1.24
2022-11-22T11:09:36.091Z,1.34
2022-11-22T11:11:39.492Z,1.37
2022-11-22T11:14:19.687Z,1.36
2022-11-22T11:16:51.774Z,1.40
2022-11-22T11:19:24.738Z,1.44
2022-11-22T11:22:00.783Z,1.44
2022-11-22T11:24:31.507Z,1.43
2022-11-22T11:27:02.331Z,1.45
2022-11-22T11:29:51.560Z,1.47
2022-11-22T11:32:22.630Z,1.46
2022-11-22T11:34:56.210Z,1.48
2022-11-22T11:37:32.820Z,1.49
2022-11-22T11:40:03.120Z,1.52
2022-11-22T11:42:34.643Z,1.58
2022-11-22T11:45:29.144Z,1.63
2022-11-22T11:47:58.981Z,1.53
2022-11-22T11:50:31.062Z,1.49
2022-11-22T11:53:07.295Z,1.53
2022-11-22T11:55:37.876Z,1.60
2022-11-22T11:58:19.990Z,1.54
2022-11-22T12:00:50.675Z,1.48
2022-11-22T12:03:29.853Z,1.36
2022-11-22T12:06:14.613Z,1.22
2022-11-22T12:08:44.572Z,1.05
2022-11-22T12:11:20.250Z,1.13
2022-11-22T12:14:18.985Z,1.15
2022-11-22T12:16:48.799Z,1.11
2022-11-22T12:19:27.888Z,1.11
2022-11-22T12:22:04.460Z,1.16
2022-11-22T12:24:56.957Z,1.17
2022-11-22T12:27:29.811Z,1.17
2022-11-22T12:29:59.961Z,1.16
2022-11-22T12:32:35.742Z,1.23
2022-11-22T12:35:11.981Z,1.25
2022-11-22T12:37:46.691Z,1.25
2022-11-22T12:40:21.681Z,1.23
2022-11-22T12:42:55.131Z,1.31
2022-11-22T12:45:30.292Z,1.39
2022-11-22T12:48:05.092Z,1.46
2022-11-22T12:50:43.022Z,1.59
2022-11-22T12:53:16.121Z,1.64
2022-11-22T12:55:52.221Z,1.71
2022-11-22T12:58:28.027Z,1.73
2022-11-22T13:01:10.540Z,1.77
2022-11-22T13:03:48.091Z,1.87
2022-11-22T13:06:21.774Z,1.92
2022-11-22T13:09:00.367Z,1.98
2022-11-22T13:11:38.050Z,1.98
2022-11-22T13:14:20.588Z,2.03
2022-11-22T13:16:51.920Z,2.06
2022-11-22T13:19:26.107Z,2.10
2022-11-22T13:22:11.440Z,2.13
2022-11-22T13:24:57.341Z,2.20
2022-11-22T13:27:32.101Z,2.19
2022-11-22T13:30:03.630Z,2.21
2022-11-22T13:32:35.762Z,2.25
2022-11-22T13:35:20.751Z,2.26
2022-11-22T13:37:54.280Z,2.30
2022-11-22T13:40:28.230Z,2.31
2022-11-22T13:43:33.490Z,2.32
2022-11-22T13:46:04.722Z,2.35
2022-11-22T13:49:09.973Z,2.39
2022-11-22T13:51:54.943Z,2.44
2022-11-22T13:55:01.081Z,2.50
2022-11-22T13:57:35.272Z,2.54
2022-11-22T14:00:42.469Z,2.57
2022-11-22T14:03:42.533Z,2.58
2022-11-22T14:06:29.039Z,2.61
2022-11-22T14:09:28.479Z,2.63
2022-11-22T14:12:28.312Z,2.63
2022-11-22T14:15:19.155Z,2.61
2022-11-22T14:17:58.921Z,2.63
2022-11-22T14:20:43.531Z,2.66
2022-11-22T14:23:24.007Z,2.69
2022-11-22T14:26:12.111Z,2.72
2022-11-22T14:29:07.131Z,2.68
2022-11-22T14:31:39.101Z,2.67
2022-11-22T14:34:22.603Z,2.63
2022-11-22T14:37:24.220Z,2.58
2022-11-22T14:40:17.630Z,2.57
2022-11-22T14:42:57.460Z,2.56
2022-11-22T14:45:36.761Z,2.52
2022-11-22T14:48:19.796Z,2.53
2022-11-22T14:50:53.079Z,2.57
2022-11-22T14:53:32.041Z,2.63
2022-11-22T14:56:13.300Z,2.64
2022-11-22T14:58:56.472Z,2.67
2022-11-22T15:01:56.111Z,2.64
2022-11-22T15:09:19.464Z,2.66
2022-11-22T15:09:21.956Z,2.66
2022-11-22T15:11:34.047Z,2.62
2022-11-22T15:14:28.244Z,2.65
2022-11-22T15:57:51.522Z,2.39
2022-11-22T16:00:24.031Z,2.37
2022-11-22T16:02:56.830Z,2.31
2022-11-22T16:06:08.849Z,2.28
2022-11-22T16:08:29.343Z,2.27
2022-11-22T16:11:04.861Z,2.26
2022-11-22T16:13:39.859Z,2.23
2022-11-22T16:16:22.230Z,2.23
2022-11-22T16:18:56.131Z,2.15
2022-11-22T16:21:30.010Z,2.08
2022-11-22T16:24:18.750Z,2.03
2022-11-22T16:26:58.204Z,1.95
2022-11-22T16:29:32.879Z,1.94
2022-11-22T16:32:06.180Z,1.90
2022-11-22T16:34:36.421Z,1.83
2022-11-22T16:37:36.220Z,1.74
2022-11-22T16:40:10.219Z,1.66
2022-11-22T16:42:41.082Z,1.60
2022-11-22T16:45:18.821Z,1.54
2022-11-22T16:48:03.623Z,1.48
2022-11-22T16:50:42.811Z,1.46
2022-11-22T16:53:17.421Z,1.39
2022-11-22T16:55:50.896Z,1.30
2022-11-22T16:58:22.960Z,1.25
2022-11-22T17:00:54.482Z,1.25
2022-11-22T17:03:31.669Z,1.22
2022-11-22T17:06:02.030Z,1.20
2022-11-22T17:08:32.112Z,1.15
2022-11-22T17:11:02.260Z,1.15
2022-11-22T17:13:32.890Z,1.11
2022-11-22T17:16:03.485Z,1.07
2022-11-22T17:18:35.600Z,0.98
2022-11-22T17:21:10.837Z,0.89
2022-11-22T17:23:46.141Z,0.87
2022-11-22T17:26:18.372Z,0.81
2022-11-22T17:28:48.477Z,0.81
2022-11-22T17:31:19.903Z,0.78
2022-11-22T17:33:52.430Z,0.67
2022-11-22T17:36:28.090Z,0.66
2022-11-22T17:38:59.430Z,0.61
2022-11-22T17:41:30.221Z,0.56
2022-11-22T17:44:01.462Z,0.62
2022-11-22T17:46:34.350Z,0.63
2022-11-22T17:49:05.249Z,0.61
2022-11-22T17:51:38.341Z,0.59
2022-11-22T17:54:08.940Z,0.58
2022-11-22T17:56:39.629Z,0.57
2022-11-22T17:59:09.540Z,0.56
2022-11-22T18:01:39.500Z,0.54
2022-11-22T18:04:09.410Z,0.49
2022-11-22T18:06:42.030Z,0.45
2022-11-22T18:09:13.850Z,0.42
2022-11-22T18:11:44.397Z,0.42
2022-11-22T18:14:14.741Z,0.43
2022-11-22T18:16:45.952Z,0.42
2022-11-22T18:19:16.113Z,0.42
2022-11-22T18:21:49.349Z,0.44
2022-11-22T18:24:19.140Z,0.40
2022-11-22T18:26:50.960Z,0.42
2022-11-22T18:29:42.237Z,0.42
2022-11-22T18:32:13.984Z,0.41
2022-11-22T18:34:43.993Z,0.39
2022-11-22T18:37:17.010Z,0.39
2022-11-22T18:39:48.281Z,0.39
2022-11-22T18:42:18.528Z,0.37
2022-11-22T18:44:48.260Z,0.40
2022-11-22T18:47:18.114Z,0.39
2022-11-22T18:49:48.360Z,0.41
2022-11-22T18:52:18.382Z,0.43
2022-11-22T18:54:48.911Z,0.40
2022-11-22T18:57:18.902Z,0.43
2022-11-22T18:59:48.702Z,0.42
2022-11-22T19:02:25.339Z,0.38
2022-11-22T19:05:00.431Z,0.38
2022-11-22T19:07:31.273Z,0.34
2022-11-22T19:10:02.694Z,0.28
2022-11-22T19:12:32.868Z,0.23
2022-11-22T19:15:02.860Z,0.22
2022-11-22T19:17:33.224Z,0.19
2022-11-22T19:20:06.734Z,0.14
2022-11-22T19:22:41.539Z,0.13
2022-11-22T19:25:17.467Z,0.12
2022-11-22T19:27:55.583Z,0.08
2022-11-22T19:30:32.132Z,0.06
2022-11-22T19:33:03.098Z,0.04
2022-11-22T19:35:40.579Z,0.04
2022-11-22T19:38:28.822Z,0.04
2022-11-22T19:44:09.365Z,0.02
2022-11-22T19:46:47.952Z,0.05
2022-11-22T19:49:20.170Z,0.05
2022-11-22T19:51:52.120Z,0.06
2022-11-22T19:54:21.951Z,0.05
2022-11-22T19:56:51.790Z,0.03
2022-11-22T19:59:21.663Z,0.03
2022-11-22T20:01:51.780Z,0.02
2022-11-22T20:04:21.713Z,0.01
2022-11-22T20:06:51.511Z,0.01
2022-11-22T20:09:21.980Z,0.03
2022-11-22T20:12:02.100Z,0.05
2022-11-22T20:14:33.069Z,0.05
2022-11-22T20:17:03.832Z,0.04
2022-11-22T20:19:34.690Z,0.03
2022-11-22T20:22:06.238Z,0.02
2022-11-22T20:24:36.393Z,0.00
2022-11-22T20:27:09.271Z,-0.03
2022-11-22T20:29:40.242Z,-0.04
2022-11-22T20:32:14.243Z,-0.08
2022-11-22T20:34:44.620Z,-0.08
2022-11-22T20:37:19.646Z,-0.08
2022-11-22T20:39:50.632Z,-0.08
2022-11-22T20:42:34.130Z,-0.09
2022-11-22T20:45:08.268Z,-0.09
2022-11-22T20:47:42.051Z,-0.10
2022-11-22T20:50:12.324Z,-0.10
2022-11-22T20:52:43.932Z,-0.13
2022-11-22T20:55:22.551Z,-0.09
2022-11-22T20:57:55.951Z,-0.09
2022-11-22T21:00:26.240Z,-0.08
2022-11-22T21:02:58.741Z,-0.07
2022-11-22T21:05:28.653Z,-0.08
2022-11-22T21:08:02.423Z,-0.04
2022-11-22T21:10:34.222Z,-0.04
2022-11-22T21:13:04.355Z,-0.08
2022-11-22T21:15:34.402Z,-0.07
2022-11-22T21:18:24.031Z,-0.08
2022-11-22T21:20:54.970Z,-0.11
2022-11-22T21:23:27.072Z,-0.12
2022-11-22T21:25:57.421Z,-0.13
2022-11-22T21:28:30.238Z,-0.12
2022-11-22T21:31:00.059Z,-0.13
2022-11-22T21:33:33.253Z,-0.14
2022-11-22T21:36:04.911Z,-0.11
2022-11-22T21:38:35.867Z,-0.10
2022-11-22T21:41:32.202Z,-0.11
2022-11-22T21:43:57.592Z,-0.12
2022-11-22T21:46:27.610Z,-0.14
2022-11-22T21:48:57.960Z,-0.15
2022-11-22T21:51:28.199Z,-0.13
2022-11-22T21:54:02.483Z,-0.14
2022-11-22T21:56:32.280Z,-0.13
2022-11-22T21:59:02.240Z,-0.15
2022-11-22T22:01:33.067Z,-0.14
2022-11-22T22:04:04.212Z,-0.15
2022-11-22T22:06:34.260Z,-0.17
2022-11-22T22:09:04.630Z,-0.17
2022-11-22T22:11:34.639Z,-0.17
2022-11-22T22:14:04.702Z,-0.19
2022-11-22T22:16:34.760Z,-0.21
2022-11-22T22:19:09.425Z,-0.21
2022-11-22T22:21:39.530Z,-0.20
2022-11-22T22:24:13.462Z,-0.20
2022-11-22T22:26:42.331Z,-0.19
2022-11-22T22:29:12.469Z,-0.25
2022-11-22T22:31:42.408Z,-0.22
2022-11-22T22:34:15.311Z,-0.23
2022-11-22T22:36:45.381Z,-0.26
2022-11-22T22:39:15.421Z,-0.28
2022-11-22T22:41:45.429Z,-0.26
2022-11-22T22:44:15.441Z,-0.31
2022-11-22T22:46:45.464Z,-0.29
2022-11-22T22:49:16.814Z,-0.30
2022-11-22T22:51:46.791Z,-0.31
2022-11-22T22:54:16.721Z,-0.33
2022-11-22T22:56:49.272Z,-0.29
2022-11-22T22:59:19.541Z,-0.30
2022-11-22T23:01:49.529Z,-0.32
2022-11-22T23:04:19.450Z,-0.31
2022-11-22T23:06:49.578Z,-0.33
2022-11-22T23:09:19.939Z,-0.34
2022-11-22T23:12:07.560Z,-0.34
2022-11-22T23:14:39.261Z,-0.34
2022-11-22T23:17:09.650Z,-0.34
2022-11-22T23:19:39.740Z,-0.34
2022-11-22T23:22:09.520Z,-0.34
2022-11-22T23:24:39.449Z,-0.36
2022-11-22T23:27:09.309Z,-0.35
2022-11-22T23:29:39.660Z,-0.37
2022-11-22T23:32:12.338Z,-0.36
2022-11-22T23:34:45.138Z,-0.34
2022-11-22T23:37:15.608Z,-0.31
2022-11-22T23:39:45.370Z,-0.30
2022-11-22T23:42:18.503Z,-0.26
2022-11-22T23:44:48.519Z,-0.25
2022-11-22T23:47:18.680Z,-0.29
2022-11-22T23:49:48.630Z,-0.29
2022-11-22T23:52:19.160Z,-0.29
2022-11-22T23:54:49.401Z,-0.30
2022-11-22T23:57:19.325Z,-0.31
2022-11-22T23:59:49.390Z,-0.31
